createdAt,value
2019-02-11T00:00:22.562Z,96.97
2019-02-11T00:02:51.266Z,100.10
2019-02-11T00:05:19.820Z,87.30
2019-02-11T00:07:48.345Z,79.63
2019-02-11T00:10:16.968Z,68.87
2019-02-11T00:12:45.597Z,72.37
2019-02-11T00:15:14.300Z,71.53
2019-02-11T00:17:42.793Z,71.60
2019-02-11T00:20:11.437Z,61.53
2019-02-11T00:22:40.326Z,71.70
2019-02-11T00:25:08.896Z,84.80
2019-02-11T00:27:37.395Z,77.30
2019-02-11T00:30:09.149Z,55.23
2019-02-11T00:32:37.643Z,61.33
2019-02-11T00:35:06.975Z,56.23
2019-02-11T00:37:35.636Z,56.70
2019-02-11T00:40:04.580Z,57.00
2019-02-11T00:42:33.082Z,55.27
2019-02-11T00:45:01.695Z,62.33
2019-02-11T00:47:30.322Z,58.37
2019-02-11T00:49:58.896Z,61.10
2019-02-11T00:52:27.509Z,60.87
2019-02-11T00:54:56.174Z,62.38
2019-02-11T00:57:24.810Z,69.40
2019-02-11T00:59:53.344Z,65.83
2019-02-11T01:02:21.840Z,62.17
2019-02-11T01:04:50.477Z,61.77
2019-02-11T01:07:19.142Z,66.27
2019-02-11T01:09:47.626Z,67.07
2019-02-11T01:12:16.250Z,62.57
2019-02-11T01:14:44.965Z,71.07
2019-02-11T01:17:13.600Z,58.70
2019-02-11T01:19:42.238Z,71.07
2019-02-11T01:22:11.127Z,62.93
2019-02-11T01:24:39.630Z,65.87
2019-02-11T01:27:08.118Z,66.43
2019-02-11T01:29:36.786Z,62.20
2019-02-11T01:32:05.412Z,58.50
2019-02-11T01:34:33.933Z,56.70
2019-02-11T01:37:02.471Z,59.57
2019-02-11T01:39:31.107Z,56.10
2019-02-11T01:41:59.733Z,52.53
2019-02-11T01:44:28.273Z,54.40
2019-02-11T01:46:56.831Z,56.60
2019-02-11T01:49:25.475Z,52.43
2019-02-11T01:51:54.238Z,54.63
2019-02-11T01:54:22.869Z,55.47
2019-02-11T01:56:51.494Z,52.87
2019-02-11T01:59:20.095Z,50.97
2019-02-11T02:01:48.594Z,55.83
2019-02-11T02:04:17.220Z,51.50
2019-02-11T02:06:45.905Z,52.30
2019-02-11T02:09:14.387Z,50.27
2019-02-11T02:11:42.886Z,53.07
2019-02-11T02:14:11.556Z,50.83
2019-02-11T02:16:40.181Z,51.07
2019-02-11T02:19:14.455Z,48.73
2019-02-11T02:21:43.049Z,47.40
2019-02-11T02:24:11.668Z,51.67
2019-02-11T02:26:40.293Z,57.13
2019-02-11T02:29:09.034Z,53.30
2019-02-11T02:31:37.668Z,49.37
2019-02-11T02:34:06.173Z,51.80
2019-02-11T02:36:34.701Z,53.63
2019-02-11T02:39:04.822Z,55.67
2019-02-11T02:41:33.462Z,54.80
2019-02-11T02:44:02.009Z,56.70
2019-02-11T02:46:30.506Z,53.73
2019-02-11T02:48:59.151Z,54.17
2019-02-11T02:51:27.820Z,55.93
2019-02-11T02:53:56.316Z,52.47
2019-02-11T02:56:24.894Z,52.10
2019-02-11T02:58:53.573Z,53.20
2019-02-11T03:01:22.227Z,52.57
2019-02-11T03:03:50.789Z,54.53
2019-02-11T03:06:19.306Z,50.83
2019-02-11T03:08:47.933Z,55.33
2019-02-11T03:11:16.432Z,59.50
2019-02-11T03:13:45.095Z,57.10
2019-02-11T03:16:13.804Z,54.23
2019-02-11T03:18:42.289Z,52.53
2019-02-11T03:21:10.818Z,55.03
2019-02-11T03:23:39.453Z,57.93
2019-02-11T03:26:08.081Z,55.17
2019-02-11T03:28:36.635Z,59.83
2019-02-11T03:31:05.248Z,64.20
2019-02-11T03:33:33.879Z,65.27
2019-02-11T03:36:02.542Z,67.53
2019-02-11T03:38:31.024Z,68.47
2019-02-11T03:40:59.601Z,70.20
2019-02-11T03:43:28.267Z,67.97
2019-02-11T03:45:56.902Z,69.50
2019-02-11T03:48:25.388Z,69.17
2019-02-11T03:50:53.987Z,64.70
2019-02-11T03:53:22.623Z,68.20
2019-02-11T03:55:51.242Z,69.87
2019-02-11T03:58:19.928Z,64.80
2019-02-11T04:00:48.434Z,72.13
2019-02-11T04:03:17.056Z,74.40
2019-02-11T04:05:45.911Z,71.90
2019-02-11T04:08:14.443Z,70.40
2019-02-11T04:10:43.068Z,68.03
2019-02-11T04:13:11.967Z,72.03
2019-02-11T04:15:40.604Z,70.87
2019-02-11T04:18:09.098Z,73.60
2019-02-11T04:20:37.736Z,71.30
2019-02-11T04:23:06.374Z,66.27
2019-02-11T04:25:35.002Z,68.20
2019-02-11T04:28:03.704Z,73.20
2019-02-11T04:30:32.337Z,67.07
2019-02-11T04:33:00.828Z,71.63
2019-02-11T04:35:29.422Z,83.33
2019-02-11T04:37:58.046Z,83.33
2019-02-11T04:40:26.685Z,82.93
2019-02-11T04:42:55.296Z,79.57
2019-02-11T04:45:23.852Z,89.37
2019-02-11T04:47:52.514Z,84.27
2019-02-11T04:50:21.223Z,96.30
2019-02-11T04:52:49.727Z,105.93
2019-02-11T04:55:18.246Z,93.47
2019-02-11T04:57:46.921Z,91.47
2019-02-11T05:00:15.822Z,89.60
2019-02-11T05:02:44.373Z,83.50
2019-02-11T05:05:13.941Z,81.67
2019-02-11T05:07:42.577Z,80.03
2019-02-11T05:10:16.124Z,89.17
2019-02-11T05:12:44.796Z,87.50
2019-02-11T05:15:13.549Z,94.67
2019-02-11T05:17:42.055Z,100.60
2019-02-11T05:20:12.308Z,91.63
2019-02-11T05:22:40.947Z,88.57
2019-02-11T05:25:09.988Z,99.07
2019-02-11T05:27:38.674Z,94.67
2019-02-11T05:30:09.911Z,107.80
2019-02-11T05:32:38.496Z,89.73
2019-02-11T05:35:07.696Z,95.13
2019-02-11T05:37:36.342Z,103.73
2019-02-11T05:40:08.189Z,103.33
2019-02-11T05:42:37.122Z,108.80
2019-02-11T05:45:07.772Z,116.57
2019-02-11T05:47:36.352Z,115.60
2019-02-11T05:50:07.798Z,126.10
2019-02-11T05:52:36.293Z,120.23
2019-02-11T05:55:06.020Z,125.27
2019-02-11T05:57:34.872Z,94.90
2019-02-11T06:00:04.690Z,96.33
2019-02-11T06:02:33.177Z,95.80
2019-02-11T06:05:01.728Z,104.53
2019-02-11T06:07:30.361Z,122.27
2019-02-11T06:09:59.051Z,111.47
2019-02-11T06:12:27.553Z,104.97
2019-02-11T06:15:04.028Z,109.87
2019-02-11T06:17:26.424Z,111.30
2019-02-11T06:19:55.098Z,105.33
2019-02-11T06:22:23.687Z,89.40
2019-02-11T06:24:58.268Z,92.02
2019-02-11T06:27:27.190Z,95.95
2019-02-11T06:29:55.824Z,89.55
2019-02-11T06:32:24.470Z,99.47
2019-02-11T06:34:53.196Z,97.35
2019-02-11T06:37:21.662Z,96.87
2019-02-11T06:39:50.132Z,99.87
2019-02-11T06:42:18.804Z,75.95
2019-02-11T06:44:47.429Z,83.45
2019-02-11T06:47:15.985Z,76.12
2019-02-11T06:49:44.588Z,86.35
2019-02-11T06:52:13.227Z,83.07
2019-02-11T06:54:41.868Z,94.17
2019-02-11T06:57:10.423Z,95.22
2019-02-11T06:59:38.920Z,93.12
2019-02-11T07:02:07.548Z,84.15
2019-02-11T07:04:36.217Z,77.42
2019-02-11T07:07:04.784Z,68.78
2019-02-11T07:09:33.418Z,64.20
2019-02-11T07:12:01.942Z,85.87
2019-02-11T07:14:30.427Z,58.58
2019-02-11T07:16:59.054Z,58.95
2019-02-11T07:19:27.711Z,46.30
2019-02-11T07:21:56.209Z,53.45
2019-02-11T07:24:24.698Z,51.42
2019-02-11T07:26:53.362Z,42.62
2019-02-11T07:29:21.986Z,56.98
2019-02-11T07:31:50.483Z,62.70
2019-02-11T07:34:19.026Z,38.02
2019-02-11T07:36:47.654Z,56.73
2019-02-11T07:39:16.294Z,59.20
2019-02-11T07:41:46.459Z,37.63
2019-02-11T07:44:19.270Z,42.88
2019-02-11T07:46:47.888Z,46.92
2019-02-11T07:49:16.433Z,58.10
2019-02-11T07:51:45.072Z,58.90
2019-02-11T07:54:13.710Z,44.65
2019-02-11T07:56:42.325Z,47.67
2019-02-11T07:59:10.875Z,50.10
2019-02-11T08:01:39.497Z,40.43
2019-02-11T08:04:08.267Z,41.92
2019-02-11T08:06:36.815Z,34.58
2019-02-11T08:09:07.886Z,37.08
2019-02-11T08:11:36.774Z,31.15
2019-02-11T08:14:05.431Z,46.00
2019-02-11T08:16:33.917Z,34.30
2019-02-11T08:19:02.524Z,39.80
2019-02-11T08:21:31.155Z,28.45
2019-02-11T08:23:59.809Z,34.70
2019-02-11T08:26:28.401Z,47.62
2019-02-11T08:28:58.020Z,47.93
2019-02-11T08:31:26.507Z,81.90
2019-02-11T08:33:55.025Z,89.52
2019-02-11T08:36:23.664Z,82.78
2019-02-11T08:38:52.309Z,66.92
2019-02-11T08:41:21.217Z,74.27
2019-02-11T08:43:49.709Z,69.97
2019-02-11T08:46:18.333Z,49.80
2019-02-11T08:48:47.015Z,50.63
2019-02-11T08:51:15.643Z,51.28
2019-02-11T08:53:44.202Z,60.70
2019-02-11T08:56:12.864Z,48.92
2019-02-11T08:58:41.504Z,45.83
2019-02-11T09:01:10.136Z,43.75
2019-02-11T09:03:38.664Z,44.30
2019-02-11T09:06:07.294Z,36.58
2019-02-11T09:08:35.928Z,46.53
2019-02-11T09:11:04.799Z,39.98
2019-02-11T09:13:33.300Z,43.78
2019-02-11T09:16:01.929Z,44.53
2019-02-11T09:18:30.791Z,44.93
2019-02-11T09:20:59.278Z,40.00
2019-02-11T09:23:27.808Z,39.70
2019-02-11T09:25:56.492Z,43.28
2019-02-11T09:28:25.115Z,47.20
2019-02-11T09:30:53.610Z,49.53
2019-02-11T09:33:22.159Z,51.90
2019-02-11T09:35:50.797Z,56.73
2019-02-11T09:38:19.428Z,56.15
2019-02-11T09:40:48.055Z,47.53
2019-02-11T09:43:16.577Z,48.17
2019-02-11T09:45:45.196Z,50.38
2019-02-11T09:48:13.763Z,52.98
2019-02-11T09:50:47.553Z,49.08
2019-02-11T09:53:16.179Z,52.45
2019-02-11T09:55:44.753Z,55.78
2019-02-11T09:58:13.286Z,41.23
2019-02-11T10:00:41.979Z,46.02
2019-02-11T10:03:10.635Z,53.05
2019-02-11T10:05:39.387Z,51.33
2019-02-11T10:08:08.011Z,46.80
2019-02-11T10:10:36.651Z,45.03
2019-02-11T10:13:05.491Z,49.70
2019-02-11T10:15:34.077Z,44.53
2019-02-11T10:18:02.698Z,49.42
2019-02-11T10:20:31.531Z,52.95
2019-02-11T10:23:00.152Z,48.33
2019-02-11T10:25:30.480Z,47.83
2019-02-11T10:28:02.045Z,45.25
2019-02-11T10:30:30.606Z,54.03
2019-02-11T10:32:59.271Z,67.67
2019-02-11T10:35:27.933Z,56.80
2019-02-11T10:37:56.556Z,57.35
2019-02-11T10:40:25.188Z,54.70
2019-02-11T10:42:53.779Z,60.45
2019-02-11T10:45:22.393Z,65.95
2019-02-11T10:47:51.031Z,56.53
2019-02-11T10:50:20.040Z,56.08
2019-02-11T10:52:48.612Z,65.83
2019-02-11T10:55:19.527Z,54.10
2019-02-11T10:57:48.301Z,53.10
2019-02-11T11:00:22.589Z,50.65
2019-02-11T11:02:51.134Z,49.38
2019-02-11T11:05:19.932Z,47.03
2019-02-11T11:07:51.405Z,47.17
2019-02-11T11:10:25.727Z,54.27
2019-02-11T11:12:54.361Z,58.87
2019-02-11T11:15:23.287Z,47.45
2019-02-11T11:17:51.809Z,49.25
2019-02-11T11:20:20.438Z,46.68
2019-02-11T11:22:49.078Z,45.70
2019-02-11T11:25:18.758Z,52.55
2019-02-11T11:27:47.573Z,43.50
2019-02-11T11:30:17.497Z,64.90
2019-02-11T11:32:46.379Z,73.85
2019-02-11T11:35:16.788Z,49.35
2019-02-11T11:37:45.347Z,49.13
2019-02-11T11:40:16.960Z,52.85
2019-02-11T11:42:45.583Z,53.78
2019-02-11T11:45:16.519Z,53.38
2019-02-11T11:47:45.179Z,69.47
2019-02-11T11:50:15.381Z,60.15
2019-02-11T11:52:44.006Z,51.10
2019-02-11T11:55:19.158Z,58.38
2019-02-11T11:57:47.886Z,75.92
2019-02-11T12:00:25.314Z,51.40
2019-02-11T12:03:03.910Z,52.88
2019-02-11T12:05:24.885Z,51.73
2019-02-11T12:07:53.548Z,50.67
2019-02-11T12:10:22.173Z,50.28
2019-02-11T12:12:50.813Z,47.88
2019-02-11T12:15:21.802Z,46.50
2019-02-11T12:17:50.822Z,49.73
2019-02-11T12:20:19.413Z,49.10
2019-02-11T12:22:48.184Z,47.95
2019-02-11T12:25:18.019Z,44.70
2019-02-11T12:27:46.673Z,45.83
2019-02-11T12:30:18.123Z,43.38
2019-02-11T12:32:46.766Z,49.30
2019-02-11T12:35:15.587Z,46.80
2019-02-11T12:37:44.189Z,43.90
2019-02-11T12:40:13.039Z,44.93
2019-02-11T12:42:41.649Z,42.30
2019-02-11T12:45:13.054Z,55.73
2019-02-11T12:47:41.628Z,46.02
2019-02-11T12:50:12.668Z,40.88
2019-02-11T12:52:41.357Z,50.88
2019-02-11T12:55:12.019Z,54.90
2019-02-11T12:57:40.579Z,41.35
2019-02-11T13:00:11.963Z,43.80
2019-02-11T13:02:40.599Z,56.63
2019-02-11T13:05:10.658Z,62.05
2019-02-11T13:07:39.345Z,54.55
2019-02-11T13:10:12.302Z,39.05
2019-02-11T13:12:40.865Z,38.65
2019-02-11T13:15:11.385Z,40.03
2019-02-11T13:17:40.069Z,41.10
2019-02-11T13:20:12.083Z,44.98
2019-02-11T13:22:41.095Z,37.20
2019-02-11T13:25:11.936Z,33.88
2019-02-11T13:27:40.676Z,33.98
2019-02-11T13:30:12.201Z,36.50
2019-02-11T13:32:40.938Z,52.83
2019-02-11T13:35:09.570Z,39.30
2019-02-11T13:37:38.263Z,42.05
2019-02-11T13:40:08.904Z,37.78
2019-02-11T13:42:37.488Z,25.90
2019-02-11T13:45:19.996Z,28.45
2019-02-11T13:47:54.806Z,34.13
2019-02-11T13:50:27.155Z,35.80
2019-02-11T13:52:56.142Z,32.67
2019-02-11T13:55:29.534Z,37.65
2019-02-11T13:57:55.259Z,40.10
2019-02-11T14:00:32.139Z,39.53
2019-02-11T14:03:03.552Z,44.53
2019-02-11T14:05:33.297Z,40.03
2019-02-11T14:08:02.759Z,38.33
2019-02-11T14:10:31.708Z,41.53
2019-02-11T14:13:00.719Z,38.65
2019-02-11T14:15:29.345Z,40.40
2019-02-11T14:18:12.141Z,40.10
2019-02-11T14:20:37.005Z,32.90
2019-02-11T14:23:06.339Z,26.12
2019-02-11T14:25:43.710Z,49.48
2019-02-11T14:28:05.903Z,33.58
2019-02-11T14:30:34.541Z,35.17
2019-02-11T14:33:03.313Z,30.20
2019-02-11T14:35:32.185Z,35.10
2019-02-11T14:38:02.243Z,36.33
2019-02-11T14:40:31.119Z,44.58
2019-02-11T14:42:59.820Z,34.75
2019-02-11T14:45:29.112Z,31.75
2019-02-11T14:47:57.606Z,37.93
2019-02-11T14:50:26.277Z,33.67
2019-02-11T14:52:54.920Z,34.65
2019-02-11T14:55:23.424Z,34.48
2019-02-11T14:57:52.000Z,33.83
2019-02-11T15:00:22.010Z,35.33
2019-02-11T15:02:50.757Z,38.60
2019-02-11T15:05:19.822Z,46.95
2019-02-11T15:07:48.663Z,36.83
2019-02-11T15:10:19.459Z,41.90
2019-02-11T15:12:47.620Z,36.98
2019-02-11T15:15:22.070Z,42.80
2019-02-11T15:17:50.721Z,39.10
2019-02-11T15:20:19.222Z,36.50
2019-02-11T15:22:47.828Z,37.60
2019-02-11T15:25:19.771Z,38.73
2019-02-11T15:27:48.391Z,53.63
2019-02-11T15:30:19.432Z,45.20
2019-02-11T15:32:48.071Z,49.05
2019-02-11T15:35:16.783Z,41.63
2019-02-11T15:37:45.457Z,40.65
2019-02-11T15:40:16.590Z,46.37
2019-02-11T15:42:45.139Z,38.67
2019-02-11T15:45:15.016Z,44.05
2019-02-11T15:47:43.583Z,51.15
2019-02-11T15:50:17.702Z,36.48
2019-02-11T15:52:46.365Z,46.95
2019-02-11T15:55:16.994Z,61.90
2019-02-11T15:57:45.662Z,68.42
2019-02-11T16:00:24.037Z,61.18
2019-02-11T16:02:52.660Z,44.45
2019-02-11T16:05:21.167Z,67.40
2019-02-11T16:07:50.074Z,44.63
2019-02-11T16:10:27.041Z,54.63
2019-02-11T16:12:55.936Z,56.55
2019-02-11T16:15:24.559Z,55.83
2019-02-11T16:17:53.112Z,38.42
2019-02-11T16:20:22.011Z,42.30
2019-02-11T16:22:50.635Z,36.80
2019-02-11T16:25:19.280Z,18.57
2019-02-11T16:27:48.169Z,20.10
2019-02-11T16:30:20.471Z,13.80
2019-02-11T16:32:49.103Z,24.60
2019-02-11T16:35:18.540Z,37.48
2019-02-11T16:37:47.189Z,21.25
2019-02-11T16:40:18.295Z,16.05
2019-02-11T16:42:46.966Z,22.15
2019-02-11T16:45:15.588Z,16.82
2019-02-11T16:47:44.210Z,18.73
2019-02-11T16:50:13.231Z,21.87
2019-02-11T16:52:41.791Z,28.05
2019-02-11T16:55:11.845Z,28.00
2019-02-11T16:57:40.525Z,23.40
2019-02-11T17:00:15.369Z,35.43
2019-02-11T17:02:44.024Z,43.45
2019-02-11T17:05:13.343Z,54.08
2019-02-11T17:07:42.467Z,42.53
2019-02-11T17:10:15.365Z,66.75
2019-02-11T17:12:44.131Z,52.27
2019-02-11T17:15:20.449Z,60.05
2019-02-11T17:17:49.104Z,58.02
2019-02-11T17:20:17.830Z,59.20
2019-02-11T17:22:46.667Z,48.68
2019-02-11T17:25:15.985Z,31.12
2019-02-11T17:27:44.551Z,33.67
2019-02-11T17:30:18.914Z,41.95
2019-02-11T17:32:47.614Z,56.18
2019-02-11T17:35:16.161Z,64.58
2019-02-11T17:37:44.654Z,34.85
2019-02-11T17:40:20.241Z,49.13
2019-02-11T17:42:48.856Z,54.42
2019-02-11T17:45:22.787Z,28.73
2019-02-11T17:47:51.652Z,28.20
2019-02-11T17:50:20.305Z,29.55
2019-02-11T17:52:50.441Z,25.27
2019-02-11T17:55:19.112Z,25.08
2019-02-11T17:57:47.743Z,25.72
2019-02-11T18:00:30.434Z,25.15
2019-02-11T18:02:59.065Z,39.70
2019-02-11T18:05:27.702Z,38.35
2019-02-11T18:07:56.386Z,30.50
2019-02-11T18:10:24.959Z,31.77
2019-02-11T18:12:53.496Z,32.08
2019-02-11T18:15:22.134Z,27.13
2019-02-11T18:17:50.769Z,29.63
2019-02-11T18:20:19.297Z,35.38
2019-02-11T18:22:47.797Z,35.55
2019-02-11T18:25:16.416Z,28.90
2019-02-11T18:27:45.147Z,30.65
2019-02-11T18:30:16.066Z,29.90
2019-02-11T18:32:44.832Z,29.00
2019-02-11T18:35:18.643Z,26.15
2019-02-11T18:37:47.140Z,29.50
2019-02-11T18:40:16.190Z,28.10
2019-02-11T18:42:44.845Z,30.85
2019-02-11T18:45:14.977Z,34.83
2019-02-11T18:47:43.464Z,39.00
2019-02-11T18:50:16.234Z,42.58
2019-02-11T18:52:44.862Z,27.07
2019-02-11T18:55:15.193Z,28.00
2019-02-11T18:57:43.722Z,29.30
2019-02-11T19:00:19.666Z,29.90
2019-02-11T19:02:48.998Z,30.90
2019-02-11T19:05:18.112Z,35.00
2019-02-11T19:07:46.870Z,28.77
2019-02-11T19:10:19.556Z,30.43
2019-02-11T19:12:48.108Z,34.13
2019-02-11T19:15:18.329Z,35.73
2019-02-11T19:17:47.069Z,30.65
2019-02-11T19:20:18.690Z,31.62
2019-02-11T19:22:47.263Z,32.42
2019-02-11T19:25:15.887Z,30.97
2019-02-11T19:27:44.763Z,31.85
2019-02-11T19:30:20.905Z,30.88
2019-02-11T19:32:49.287Z,33.53
2019-02-11T19:35:17.933Z,31.97
2019-02-11T19:37:46.593Z,31.37
2019-02-11T19:40:17.481Z,31.17
2019-02-11T19:42:46.141Z,30.85
2019-02-11T19:45:19.679Z,37.13
2019-02-11T19:47:48.384Z,30.20
2019-02-11T19:50:17.917Z,27.07
2019-02-11T19:52:47.059Z,35.23
2019-02-11T19:55:16.693Z,33.60
2019-02-11T19:57:45.355Z,38.35
2019-02-11T20:00:21.688Z,37.42
2019-02-11T20:02:50.958Z,36.13
2019-02-11T20:05:19.792Z,35.70
2019-02-11T20:07:48.509Z,37.70
2019-02-11T20:10:19.833Z,38.20
2019-02-11T20:12:48.478Z,32.17
2019-02-11T20:15:22.667Z,32.48
2019-02-11T20:17:57.167Z,34.98
2019-02-11T20:20:22.992Z,30.70
2019-02-11T20:22:51.713Z,33.83
2019-02-11T20:25:20.349Z,28.77
2019-02-11T20:27:48.874Z,31.95
2019-02-11T20:30:23.113Z,32.85
2019-02-11T20:32:51.740Z,29.42
2019-02-11T20:35:20.273Z,31.73
2019-02-11T20:37:48.822Z,22.73
2019-02-11T20:40:19.850Z,23.95
2019-02-11T20:42:48.503Z,23.40
2019-02-11T20:45:22.577Z,23.18
2019-02-11T20:47:51.200Z,31.10
2019-02-11T20:50:20.089Z,29.72
2019-02-11T20:52:48.721Z,28.38
2019-02-11T20:55:17.348Z,27.82
2019-02-11T20:57:47.670Z,29.05
2019-02-11T21:00:24.075Z,24.07
2019-02-11T21:02:52.713Z,29.20
2019-02-11T21:05:24.539Z,33.60
2019-02-11T21:07:53.259Z,24.75
2019-02-11T21:10:23.589Z,29.05
2019-02-11T21:12:52.188Z,29.95
2019-02-11T21:15:20.933Z,29.55
2019-02-11T21:17:49.571Z,26.97
2019-02-11T21:20:30.239Z,35.25
2019-02-11T21:22:58.787Z,35.83
2019-02-11T21:25:28.125Z,38.48
2019-02-11T21:27:56.791Z,23.22
2019-02-11T21:30:25.285Z,33.40
2019-02-11T21:32:53.847Z,39.73
2019-02-11T21:35:22.804Z,20.92
2019-02-11T21:37:51.425Z,6.12
2019-02-11T21:40:19.965Z,5.62
2019-02-11T21:42:48.556Z,2.12
2019-02-11T21:45:17.171Z,2.90
2019-02-11T21:47:53.729Z,0.72
2019-02-11T21:50:26.776Z,0.72
2019-02-11T21:52:53.106Z,0.30
2019-02-11T21:55:23.624Z,0.20
2019-02-11T21:57:52.372Z,0.30
2019-02-11T22:00:21.787Z,0.50
2019-02-11T22:02:50.403Z,2.50
2019-02-11T22:05:19.083Z,0.65
2019-02-11T22:07:47.713Z,0.20
2019-02-11T22:10:23.449Z,2.55
2019-02-11T22:12:52.183Z,0.37
2019-02-11T22:15:20.827Z,0.10
2019-02-11T22:17:49.376Z,0.30
2019-02-11T22:20:22.568Z,0.40
2019-02-11T22:22:51.191Z,0.37
2019-02-11T22:25:19.817Z,0.40
2019-02-11T22:27:48.362Z,0.93
2019-02-11T22:30:19.520Z,0.10
2019-02-11T22:32:48.134Z,0.10
2019-02-11T22:35:16.838Z,0.30
2019-02-11T22:37:45.784Z,0.40
2019-02-11T22:40:15.312Z,0.20
2019-02-11T22:42:44.007Z,1.57
2019-02-11T22:45:27.083Z,0.20
2019-02-11T22:47:55.607Z,0.40
2019-02-11T22:50:24.228Z,0.43
2019-02-11T22:52:52.857Z,0.27
2019-02-11T22:55:21.394Z,0.80
2019-02-11T22:57:49.944Z,0.30
2019-02-11T23:00:52.341Z,0.30
2019-02-11T23:03:20.956Z,0.30
2019-02-11T23:05:49.620Z,0.93
2019-02-11T23:08:18.284Z,0.30
2019-02-11T23:10:47.063Z,0.47
2019-02-11T23:13:15.681Z,0.30
2019-02-11T23:15:44.620Z,0.20
2019-02-11T23:18:13.473Z,0.20
2019-02-11T23:20:42.046Z,0.87
2019-02-11T23:23:10.568Z,1.80
2019-02-11T23:25:39.196Z,0.20
2019-02-11T23:28:07.848Z,0.37
2019-02-11T23:30:36.400Z,0.10
2019-02-11T23:33:05.026Z,0.10
2019-02-11T23:35:33.646Z,0.63
2019-02-11T23:38:02.381Z,0.10
2019-02-11T23:40:30.856Z,0.33
2019-02-11T23:42:59.977Z,0.10
2019-02-11T23:45:28.764Z,0.10
2019-02-11T23:47:57.253Z,0.10
2019-02-11T23:50:25.874Z,0.10
2019-02-11T23:53:10.128Z,0.10
2019-02-11T23:55:38.607Z,0.00
2019-02-11T23:58:07.336Z,0.17
